Time;durP1;ratioP1;P1;durP2;ratioP2;P2;SDS_P1;SDS_P2;PMS_P1;PMS_P2;Temp;Humidity;BMP_temperature;BMP_pressure;BME280_temperature;BME280_humidity;BME280_pressure;Samples;Min_cycle;Max_cycle;Signal;HPM_P1;HPM_P2
2023/08/09 00:03:26;;;;;;;;;;;18.80;52.90;;;17.90;53.73;100731.22;12254245;19;20346;-84
2023/08/09 00:07:27;;;;;;;;;;;18.80;52.90;;;17.82;53.70;100714.34;12250221;19;19914;-84
2023/08/09 00:11:29;;;;;;;;;;;18.80;52.90;;;17.81;53.59;100712.69;12254731;19;20324;-84
2023/08/09 00:15:31;;;;;;;;;;;18.80;53.00;;;17.84;53.54;100722.97;12254299;19;19921;-84
2023/08/09 00:19:32;;;;;;;;;;;18.80;52.90;;;17.82;53.49;100724.91;12254179;19;19947;-84
2023/08/09 00:23:34;;;;;;;;;;;18.70;52.90;;;17.78;53.77;100726.94;12254185;19;19923;-84
2023/08/09 00:27:36;;;;;;;;;;;18.70;53.00;;;17.69;53.84;100723.31;12250439;19;19919;-84
2023/08/09 00:31:37;;;;;;;;;;;18.70;53.00;;;17.71;53.67;100720.50;12253250;19;19931;-84
2023/08/09 00:35:39;;;;;;;;;;;18.70;53.00;;;17.61;53.90;100704.63;12252741;19;19919;-84
2023/08/09 00:39:41;;;;;;;;;;;18.60;53.20;;;17.37;53.70;100678.50;12252085;19;19911;-84
2023/08/09 00:43:43;;;;;;;;;;;18.60;53.00;;;17.40;53.73;100691.44;12251682;19;19938;-84
2023/08/09 00:47:45;;;;;;;;;;;18.60;53.00;;;17.48;53.64;100699.53;12250307;19;19986;-84
2023/08/09 00:51:47;;;;;;;;;;;18.60;53.00;;;17.56;53.76;100714.75;12251448;19;19974;-84
2023/08/09 00:55:49;;;;;;;;;;;18.60;53.00;;;17.52;53.77;100713.31;12250637;19;19922;-84
2023/08/09 00:59:52;;;;;;;;;;;18.60;53.00;;;17.62;53.98;100724.78;12247956;19;19923;-84
2023/08/09 01:03:54;;;;;;;;;;;18.60;53.10;;;17.59;53.89;100730.31;12249850;19;19951;-84
2023/08/09 01:08:03;;;;;;;;;;;18.60;53.00;;;17.59;53.81;100738.25;12245660;19;20226;-84
2023/08/09 01:12:11;;;;;;;;;;;18.60;53.00;;;17.56;53.90;100742.97;12250579;19;19911;-84
2023/08/09 01:16:15;;;;;;;;;;;18.50;53.10;;;17.48;53.95;100725.13;12249025;19;19910;-84
2023/08/09 01:20:18;;;;;;;;;;;18.50;53.00;;;17.48;53.79;100725.13;12247965;19;19931;-84
2023/08/09 01:24:20;;;;;;;;;;;18.50;53.00;;;17.46;54.01;100732.31;12248598;19;19915;-84
2023/08/09 01:28:22;;;;;;;;;;;18.50;53.10;;;17.29;53.94;100698.59;12245284;19;19915;-85
2023/08/09 01:32:28;;;;;;;;;;;18.40;53.10;;;17.47;53.95;100729.56;12249081;19;19953;-84
2023/08/09 01:36:33;;;;;;;;;;;18.40;53.10;;;17.43;53.97;100724.66;12247193;19;19927;-84
2023/08/09 01:40:36;;;;;;;;;;;18.40;53.10;;;17.38;53.90;100730.31;12246966;19;20253;-85
2023/08/09 01:44:39;;;;;;;;;;;18.40;53.10;;;17.41;54.20;100743.25;12248032;19;19914;-84
2023/08/09 01:48:40;;;;;;;;;;;18.30;53.10;;;17.40;54.08;100746.03;12244392;19;20337;-84
2023/08/09 01:52:42;;;;;;;;;;;18.40;53.10;;;17.32;54.00;100727.38;12248590;19;19947;-84
2023/08/09 01:56:45;;;;;;;;;;;18.30;53.10;;;17.40;53.89;100738.97;12244556;19;19960;-84
2023/08/09 02:00:46;;;;;;;;;;;18.30;53.20;;;17.39;53.90;100739.94;12246204;19;19919;-84
2023/08/09 02:04:48;;;;;;;;;;;18.30;53.20;;;17.33;53.96;100719.31;12247006;19;19922;-84
2023/08/09 02:08:49;;;;;;;;;;;18.30;53.20;;;17.34;54.06;100721.00;12247218;19;19918;-84
2023/08/09 02:12:51;;;;;;;;;;;18.30;53.20;;;17.18;54.10;100686.31;12248370;19;20318;-84
2023/08/09 02:16:52;;;;;;;;;;;18.30;53.20;;;17.32;54.00;100717.66;12246707;19;19915;-84
2023/08/09 02:20:54;;;;;;;;;;;18.30;53.20;;;17.31;54.15;100717.75;12245974;19;19910;-84
2023/08/09 02:24:55;;;;;;;;;;;18.30;53.20;;;17.29;54.28;100711.81;12246242;19;20325;-84
2023/08/09 02:28:57;;;;;;;;;;;18.30;53.20;;;17.04;54.08;100679.53;12248142;19;19928;-84
2023/08/09 02:32:59;;;;;;;;;;;18.30;53.30;;;17.31;54.20;100726.53;12246783;19;19910;-84
2023/08/09 02:37:00;;;;;;;;;;;18.20;53.20;;;17.23;54.11;100710.50;12246240;19;19926;-84
2023/08/09 02:41:04;;;;;;;;;;;18.30;53.30;;;17.07;54.28;100692.47;12244890;19;19919;-84
2023/08/09 02:45:06;;;;;;;;;;;18.30;53.30;;;17.27;54.28;100735.66;12245623;19;19915;-84
2023/08/09 02:49:08;;;;;;;;;;;18.20;53.30;;;17.04;54.27;100698.00;12243768;19;19979;-84
2023/08/09 02:53:11;;;;;;;;;;;18.20;53.30;;;17.26;54.31;100734.00;12246435;19;19922;-84
2023/08/09 02:57:13;;;;;;;;;;;18.20;53.30;;;17.18;54.26;100726.72;12243136;19;19963;-84
2023/08/09 03:01:15;;;;;;;;;;;18.20;53.30;;;17.18;54.44;100728.53;12244397;19;20249;-84
2023/08/09 03:05:16;;;;;;;;;;;18.20;53.30;;;17.20;54.29;100731.84;12242361;19;19929;-84
2023/08/09 03:09:18;;;;;;;;;;;18.20;53.40;;;17.01;54.37;100696.47;12243992;19;19935;-84
2023/08/09 03:13:19;;;;;;;;;;;18.20;53.40;;;17.23;54.41;100740.38;12244752;19;19919;-84
2023/08/09 03:17:21;;;;;;;;;;;18.20;53.40;;;16.99;54.28;100705.47;12252522;19;19931;-84
2023/08/09 03:21:22;;;;;;;;;;;18.20;53.40;;;17.04;54.34;100711.19;12251620;19;19925;-84
2023/08/09 03:25:24;;;;;;;;;;;18.20;53.40;;;17.17;54.61;100734.75;12254111;19;20349;-84
2023/08/09 03:29:26;;;;;;;;;;;18.20;53.40;;;17.14;54.51;100746.41;12254924;19;21498;-84
2023/08/09 03:33:28;;;;;;;;;;;18.20;53.50;;;17.10;54.30;100734.44;12254843;19;19914;-84
2023/08/09 03:37:30;;;;;;;;;;;18.20;53.40;;;17.15;54.57;100763.94;12252557;19;19921;-84
2023/08/09 03:41:32;;;;;;;;;;;18.10;53.40;;;17.12;54.45;100758.03;12252114;19;20326;-84
2023/08/09 03:45:35;;;;;;;;;;;18.10;53.40;;;17.16;54.35;100760.31;12254344;19;19932;-85
2023/08/09 03:49:38;;;;;;;;;;;18.20;53.50;;;17.20;54.59;100766.16;12254570;19;19923;-84
2023/08/09 03:53:39;;;;;;;;;;;18.20;53.50;;;17.21;54.31;100783.69;12253812;19;20097;-84
2023/08/09 03:57:41;;;;;;;;;;;18.20;53.50;;;17.21;54.34;100784.53;12249378;19;19930;-84
2023/08/09 04:01:43;;;;;;;;;;;18.20;53.50;;;17.21;54.40;100778.41;12250738;19;19923;-84
2023/08/09 04:05:44;;;;;;;;;;;18.20;53.60;;;17.13;54.62;100765.84;12253103;19;19936;-84
2023/08/09 04:09:46;;;;;;;;;;;18.20;53.60;;;17.17;54.68;100764.63;12252946;19;19987;-84
2023/08/09 04:13:47;;;;;;;;;;;18.20;53.60;;;17.20;54.72;100772.31;12253688;19;19915;-84
2023/08/09 04:17:49;;;;;;;;;;;18.20;53.60;;;17.15;54.67;100771.00;12249842;19;19929;-84
2023/08/09 04:21:51;;;;;;;;;;;18.20;53.60;;;17.16;54.71;100770.88;12249021;19;19930;-84
2023/08/09 04:25:54;;;;;;;;;;;18.20;53.60;;;17.18;54.69;100779.50;12250927;19;19953;-84
2023/08/09 04:29:55;;;;;;;;;;;18.20;53.60;;;17.19;54.74;100788.25;12253116;19;19915;-84
2023/08/09 04:33:57;;;;;;;;;;;18.20;53.70;;;17.19;54.63;100807.56;12244177;19;19948;-85
2023/08/09 04:38:01;;;;;;;;;;;18.20;53.80;;;17.13;54.63;100802.78;12246293;19;20261;-84
2023/08/09 04:42:04;;;;;;;;;;;18.20;53.70;;;17.09;54.66;100780.22;12248098;19;19939;-85
2023/08/09 04:46:06;;;;;;;;;;;18.20;53.70;;;17.10;54.61;100776.66;12251139;19;19918;-85
2023/08/09 04:50:08;;;;;;;;;;;18.20;53.80;;;17.04;54.68;100774.53;12250895;19;19919;-84
2023/08/09 04:54:11;;;;;;;;;;;18.30;53.80;;;17.21;54.77;100803.00;12251642;19;19939;-85
2023/08/09 04:58:12;;;;;;;;;;;18.20;53.80;;;17.22;54.94;100817.03;12246349;19;19923;-85
2023/08/09 05:02:14;;;;;;;;;;;18.20;53.80;;;17.00;54.95;100788.91;12247100;19;20336;-85
2023/08/09 05:06:15;;;;;;;;;;;18.30;53.90;;;17.17;54.78;100819.19;12242601;19;19919;-85
2023/08/09 05:10:17;;;;;;;;;;;18.20;53.80;;;17.21;54.77;100832.03;12246549;19;19939;-84
2023/08/09 05:14:18;;;;;;;;;;;18.20;53.90;;;17.20;54.81;100824.22;12245997;19;19926;-84
2023/08/09 05:18:19;;;;;;;;;;;18.30;53.90;;;17.24;54.82;100829.13;12245405;19;19970;-84
2023/08/09 05:22:21;;;;;;;;;;;18.30;54.00;;;17.24;54.92;100828.31;12243663;19;19934;-84
2023/08/09 05:26:23;;;;;;;;;;;18.20;54.00;;;17.29;54.90;100836.69;12244628;19;19986;-84
2023/08/09 05:30:24;;;;;;;;;;;18.30;54.00;;;17.23;54.88;100840.66;12246961;19;19919;-86
2023/08/09 05:34:26;;;;;;;;;;;18.40;54.10;;;17.35;54.83;100852.00;12247985;19;20328;-86
2023/08/09 05:38:28;;;;;;;;;;;18.40;54.00;;;17.33;54.75;100861.03;12242673;19;19914;-86
2023/08/09 05:42:29;;;;;;;;;;;18.30;53.90;;;17.10;55.03;100820.69;12244643;19;19918;-88
2023/08/09 05:46:31;;;;;;;;;;;18.40;54.00;;;17.36;54.93;100860.78;12245201;19;19935;-87
2023/08/09 05:50:32;;;;;;;;;;;18.40;54.00;;;17.36;54.94;100860.78;12247113;19;20258;-87
2023/08/09 05:54:33;;;;;;;;;;;18.40;54.00;;;17.33;55.11;100846.00;12247374;19;19919;-86
2023/08/09 05:58:35;;;;;;;;;;;18.50;54.10;;;17.43;55.00;100861.94;12240782;19;19918;-88
2023/08/09 06:02:37;;;;;;;;;;;18.40;54.00;;;17.43;55.12;100857.50;12244581;19;19911;-88
2023/08/09 06:06:38;;;;;;;;;;;18.50;54.00;;;17.18;55.11;100820.91;12243276;19;20000;-87
2023/08/09 06:10:40;;;;;;;;;;;18.50;54.10;;;17.37;55.11;100839.53;12243261;19;19910;-87
2023/08/09 06:14:41;;;;;;;;;;;18.50;54.30;;;17.55;55.14;100850.41;12243374;19;19919;-87
2023/08/09 06:18:43;;;;;;;;;;;18.60;54.60;;;17.53;55.01;100836.47;12243949;19;19931;-86
2023/08/09 06:22:45;;;;;;;;;;;18.60;54.50;;;17.66;55.16;100858.25;12240374;19;19910;-87
2023/08/09 06:26:46;;;;;;;;;;;18.70;54.30;;;17.73;55.34;100868.31;12243892;19;19926;-86
2023/08/09 06:30:48;;;;;;;;;;;18.80;54.30;;;17.49;55.45;100827.13;12241975;19;19934;-86
2023/08/09 06:34:50;;;;;;;;;;;18.80;54.30;;;17.54;55.36;100816.19;12244356;19;19915;-85
2023/08/09 06:38:53;;;;;;;;;;;18.80;54.40;;;17.62;55.18;100819.84;12238690;19;19935;-88
2023/08/09 06:42:54;;;;;;;;;;;18.90;54.40;;;17.97;55.31;100858.38;12239688;19;20538;-86
2023/08/09 06:47:00;;;;;;;;;;;19.00;54.40;;;17.92;55.43;100849.97;12241161;19;19919;-87
2023/08/09 06:51:02;;;;;;;;;;;19.10;54.40;;;18.05;55.33;100869.13;12254374;19;19927;-89
2023/08/09 06:55:08;;;;;;;;;;;19.10;54.30;;;17.77;55.24;100827.44;12249032;19;19918;-87
2023/08/09 06:59:10;;;;;;;;;;;19.20;54.30;;;18.05;55.28;100877.06;12257634;19;19930;-87
2023/08/09 07:03:13;;;;;;;;;;;19.20;54.20;;;18.06;55.46;100878.72;12245496;19;20410;-88
2023/08/09 07:07:14;;;;;;;;;;;19.20;54.00;;;18.13;55.22;100894.91;12253039;19;20071;-86
2023/08/09 07:11:16;;;;;;;;;;;19.20;54.10;;;18.14;55.31;100900.03;12257831;19;19914;-85
2023/08/09 07:15:17;;;;;;;;;;;19.30;54.30;;;17.96;55.48;100863.75;12255271;19;19927;-86
2023/08/09 07:19:19;;;;;;;;;;;19.20;54.10;;;18.08;55.41;100887.34;12255924;19;19935;-87
2023/08/09 07:23:20;;;;;;;;;;;19.30;54.20;;;18.16;55.36;100886.72;12254619;19;19922;-87
2023/08/09 07:27:22;;;;;;;;;;;19.30;54.10;;;17.88;55.50;100838.00;12250590;19;19931;-87
2023/08/09 07:31:24;;;;;;;;;;;19.40;54.20;;;18.37;55.33;100910.50;12252061;19;19974;-86
2023/08/09 07:35:26;;;;;;;;;;;19.40;54.30;;;18.33;55.46;100901.13;12250438;19;19929;-87
2023/08/09 07:39:27;;;;;;;;;;;19.50;54.40;;;18.44;55.54;100903.69;12251190;19;19930;-87
2023/08/09 07:43:29;;;;;;;;;;;19.60;54.30;;;18.56;55.29;100905.31;12251427;19;20004;-88
2023/08/09 07:47:31;;;;;;;;;;;19.70;54.40;;;18.58;55.31;100908.66;12251727;19;19995;-87
2023/08/09 07:51:32;;;;;;;;;;;19.70;54.20;;;18.74;55.58;100923.19;12250862;19;19919;-87
2023/08/09 07:55:34;;;;;;;;;;;19.80;54.30;;;18.80;55.39;100917.41;12251268;19;19928;-87
2023/08/09 07:59:35;;;;;;;;;;;19.90;54.10;;;18.86;55.41;100922.16;12250512;19;19911;-86
2023/08/09 08:03:37;;;;;;;;;;;20.00;54.10;;;18.99;55.37;100935.19;12252522;19;19914;-88
2023/08/09 08:07:40;;;;;;;;;;;20.10;54.00;;;19.01;55.57;100928.78;12247495;19;19915;-87
2023/08/09 08:11:43;;;;;;;;;;;20.20;53.50;;;19.09;55.56;100943.13;12250199;19;19962;-87
2023/08/09 08:15:45;;;;;;;;;;;20.20;53.60;;;19.11;55.78;100947.31;12251727;19;19951;-89
2023/08/09 08:19:47;;;;;;;;;;;20.30;53.50;;;19.13;55.73;100944.56;12251039;19;19943;-87
2023/08/09 08:23:49;;;;;;;;;;;20.40;53.40;;;19.30;55.66;100958.94;12253326;19;19911;-86
2023/08/09 08:27:50;;;;;;;;;;;20.40;53.40;;;19.35;55.58;100962.03;12246212;19;20356;-87
2023/08/09 08:31:52;;;;;;;;;;;20.50;53.20;;;19.48;55.31;100969.72;12252854;19;19962;-87
2023/08/09 08:35:54;;;;;;;;;;;20.60;53.20;;;19.52;55.35;100966.66;12251858;19;20344;-87
2023/08/09 08:39:55;;;;;;;;;;;20.70;53.30;;;19.60;55.33;100973.91;12249755;19;19919;-87
2023/08/09 08:43:57;;;;;;;;;;;20.80;53.20;;;19.47;55.51;100931.81;12250105;19;19919;-86
2023/08/09 08:47:59;;;;;;;;;;;20.80;53.10;;;19.73;55.85;100957.81;12250077;19;19923;-86
2023/08/09 08:52:06;;;;;;;;;;;20.90;53.20;;;19.68;55.48;100926.41;12251282;19;19931;-86
2023/08/09 08:56:07;;;;;;;;;;;21.10;53.20;;;19.98;55.47;100948.44;12249074;19;19922;-87
2023/08/09 09:00:15;;;;;;;;;;;21.20;53.00;;;20.08;55.51;100954.59;12248324;19;19926;-85
2023/08/09 09:04:17;;;;;;;;;;;21.30;52.90;;;20.31;55.70;100971.03;12250386;19;19927;-86
2023/08/09 09:08:19;;;;;;;;;;;21.40;52.80;;;20.35;55.42;100969.75;12245493;19;19939;-87
2023/08/09 09:12:20;;;;;;;;;;;21.60;52.80;;;20.11;55.50;100918.00;12246175;19;20325;-86
2023/08/09 09:16:22;;;;;;;;;;;21.60;52.10;;;20.53;55.42;100972.53;12248924;19;19907;-86
2023/08/09 09:20:29;;;;;;;;;;;21.80;52.50;;;20.67;55.45;100987.19;12244420;19;19919;-86
2023/08/09 09:24:30;;;;;;;;;;;21.90;52.60;;;20.81;55.44;100985.88;12247811;19;19915;-86
2023/08/09 09:28:38;;;;;;;;;;;22.00;52.10;;;20.95;55.39;100996.03;12242187;19;19947;-85
2023/08/09 09:32:56;;;;;;;;;;;22.10;52.40;;;20.94;55.30;100975.78;12245264;19;19974;-85
2023/08/09 09:36:58;;;;;;;;;;;22.30;52.30;;;21.00;55.04;100970.72;12242904;19;20350;-85
2023/08/09 09:41:00;;;;;;;;;;;22.40;52.20;;;21.21;55.04;100986.41;12244420;19;19923;-85
2023/08/09 09:45:11;;;;;;;;;;;22.50;52.30;;;21.33;55.34;100997.69;12245099;19;19911;-86
2023/08/09 09:49:14;;;;;;;;;;;22.60;52.20;;;21.27;55.42;100976.19;12244290;19;19946;-84
2023/08/09 09:53:18;;;;;;;;;;;22.60;51.60;;;21.44;55.04;100999.31;12247859;19;20366;-83
2023/08/09 09:57:19;;;;;;;;;;;22.70;51.30;;;21.54;54.94;100997.44;12240322;19;19930;-84
2023/08/09 10:01:23;;;;;;;;;;;22.80;51.60;;;21.56;54.95;100990.16;12243551;19;20596;-84
2023/08/09 10:05:35;;;;;;;;;;;22.90;50.90;;;21.67;55.00;101005.06;12246389;19;19926;-84
2023/08/09 10:09:36;;;;;;;;;;;22.90;51.30;;;21.77;54.70;101005.84;12244343;19;20292;-84
2023/08/09 10:13:39;;;;;;;;;;;23.00;51.30;;;21.79;54.87;101003.03;12245925;19;19932;-84
2023/08/09 10:17:41;;;;;;;;;;;23.00;51.40;;;21.74;54.82;100999.97;12243594;19;20342;-84
2023/08/09 10:21:43;;;;;;;;;;;23.00;51.30;;;21.77;54.34;101008.50;12235076;19;19936;-84
2023/08/09 10:25:46;;;;;;;;;;;23.00;51.20;;;21.69;54.52;100995.13;12241261;19;20357;-84
2023/08/09 10:29:56;;;;;;;;;;;22.90;51.00;;;21.65;54.61;100985.75;12244666;19;19926;-84
2023/08/09 10:34:06;;;;;;;;;;;23.00;51.00;;;21.86;54.69;101006.75;12243073;19;19923;-84
2023/08/09 10:38:08;;;;;;;;;;;22.90;51.00;;;21.89;54.56;101001.13;12243355;19;20247;-85
2023/08/09 10:42:11;;;;;;;;;;;23.00;51.10;;;21.87;54.54;100968.53;12240270;19;19911;-86
2023/08/09 10:46:23;;;;;;;;;;;23.20;50.00;;;22.13;54.58;100995.19;12243855;19;19924;-83
2023/08/09 10:50:30;;;;;;;;;;;23.20;50.70;;;22.31;54.53;101003.19;12243384;19;19931;-83
2023/08/09 10:54:32;;;;;;;;;;;23.40;51.00;;;22.44;54.17;101000.13;12244198;19;20333;-85
2023/08/09 10:58:34;;;;;;;;;;;23.50;50.30;;;22.41;54.28;100990.63;12242690;19;19919;-84
2023/08/09 11:02:36;;;;;;;;;;;23.70;48.40;;;22.62;54.25;101002.75;12240369;19;20007;-85
2023/08/09 11:06:40;;;;;;;;;;;23.80;50.20;;;22.69;54.07;100988.66;12242278;19;20006;-84
2023/08/09 11:10:42;;;;;;;;;;;23.90;49.40;;;22.77;54.00;100995.03;12244837;19;20313;-85
2023/08/09 11:14:44;;;;;;;;;;;23.90;49.20;;;22.89;54.04;101012.41;12239422;19;20341;-85
2023/08/09 11:18:45;;;;;;;;;;;24.00;49.70;;;22.85;54.09;101011.88;12241762;19;19922;-85
2023/08/09 11:22:58;;;;;;;;;;;24.00;48.60;;;22.90;53.54;101025.56;12238031;19;19919;-85
2023/08/09 11:26:59;;;;;;;;;;;24.10;49.70;;;22.82;53.57;101022.00;12237086;19;19978;-83
2023/08/09 11:31:01;;;;;;;;;;;24.00;49.80;;;22.73;53.62;101029.09;12242495;19;20254;-83
2023/08/09 11:35:03;;;;;;;;;;;23.90;49.50;;;22.68;53.65;101045.56;12239139;19;20371;-83
2023/08/09 11:39:05;;;;;;;;;;;23.90;49.70;;;22.46;53.20;101044.22;12252978;19;19922;-83
2023/08/09 11:43:11;;;;;;;;;;;23.80;49.50;;;22.16;53.54;101025.97;12249307;19;19948;-84
2023/08/09 11:47:13;;;;;;;;;;;23.60;49.90;;;22.26;53.41;101072.84;12250936;19;20311;-84
2023/08/09 11:51:18;;;;;;;;;;;23.40;50.10;;;22.19;53.23;101084.22;12250523;19;19947;-82
2023/08/09 11:55:21;;;;;;;;;;;23.30;50.40;;;22.12;53.17;101080.50;12252026;19;19922;-83
2023/08/09 11:59:24;;;;;;;;;;;23.20;50.40;;;22.08;53.01;101086.09;12243514;19;19927;-82
2023/08/09 12:03:25;;;;;;;;;;;23.10;50.60;;;22.01;53.07;101077.06;12248825;19;19983;-83
2023/08/09 12:07:27;;;;;;;;;;;23.00;50.40;;;21.90;53.25;101071.09;12249464;19;20341;-83
2023/08/09 12:11:28;;;;;;;;;;;22.90;50.40;;;21.96;53.09;101082.00;12250966;19;20333;-85
2023/08/09 12:15:31;;;;;;;;;;;22.90;50.60;;;21.91;53.20;101070.97;12249697;19;19931;-84
2023/08/09 12:19:34;;;;;;;;;;;22.90;50.30;;;22.02;52.97;101093.84;12250216;19;19911;-83
2023/08/09 12:23:36;;;;;;;;;;;22.90;49.50;;;21.66;53.26;101027.34;12250036;19;19979;-83
2023/08/09 12:27:39;;;;;;;;;;;22.90;49.80;;;21.93;52.81;101081.44;12247044;19;20262;-83
2023/08/09 12:31:40;;;;;;;;;;;23.00;49.50;;;22.07;53.15;101094.22;12250468;19;19933;-83
2023/08/09 12:35:42;;;;;;;;;;;23.00;49.90;;;22.11;52.94;101076.97;12249370;19;19922;-83
2023/08/09 12:39:44;;;;;;;;;;;23.00;49.90;;;22.26;53.05;101091.47;12251263;19;19911;-83
2023/08/09 12:43:45;;;;;;;;;;;22.90;50.00;;;22.27;53.09;101089.63;12248810;19;20286;-83
2023/08/09 12:47:46;;;;;;;;;;;23.20;49.80;;;22.41;52.75;101074.94;12247689;19;19945;-83
2023/08/09 12:51:48;;;;;;;;;;;23.40;49.90;;;22.47;52.98;101067.19;12248566;19;19974;-83
2023/08/09 12:55:49;;;;;;;;;;;23.50;49.70;;;22.51;52.99;101078.38;12249274;19;20325;-83
2023/08/09 12:59:50;;;;;;;;;;;23.60;50.00;;;22.67;53.12;101083.81;12249287;19;20334;-83
2023/08/09 13:03:52;;;;;;;;;;;23.70;49.90;;;22.82;52.65;101100.09;12249027;19;19930;-84
2023/08/09 13:07:54;;;;;;;;;;;23.80;49.70;;;22.91;53.06;101112.47;12244282;19;19978;-82
2023/08/09 13:12:09;;;;;;;;;;;23.90;49.50;;;23.02;52.93;101113.22;12246806;19;19919;-82
2023/08/09 13:16:11;;;;;;;;;;;24.00;49.40;;;23.12;52.69;101111.31;12246628;19;20321;-82
2023/08/09 13:20:12;;;;;;;;;;;24.10;48.90;;;23.22;52.91;101108.50;12246339;19;19919;-82
2023/08/09 13:24:13;;;;;;;;;;;24.20;49.30;;;23.30;52.46;101108.56;12248804;19;19929;-82
2023/08/09 13:28:15;;;;;;;;;;;24.30;48.60;;;23.31;52.33;101095.09;12244121;19;19926;-83
2023/08/09 13:32:17;;;;;;;;;;;24.40;49.30;;;23.44;52.50;101112.44;12248097;19;19945;-83
2023/08/09 13:36:18;;;;;;;;;;;24.50;49.50;;;23.42;52.57;101105.47;12245143;19;19926;-83
2023/08/09 13:40:20;;;;;;;;;;;24.50;48.60;;;23.30;52.38;101085.41;12244109;19;19919;-83
2023/08/09 13:44:23;;;;;;;;;;;24.60;47.90;;;23.31;52.38;101083.59;12245446;19;19914;-83
2023/08/09 13:48:24;;;;;;;;;;;24.60;48.20;;;23.51;52.09;101118.84;12242494;19;19915;-83
2023/08/09 13:52:25;;;;;;;;;;;24.60;48.90;;;23.50;52.45;101109.19;12247021;19;19949;-83
2023/08/09 13:56:27;;;;;;;;;;;24.60;48.80;;;23.55;52.10;101123.69;12245918;19;20313;-83
2023/08/09 14:00:30;;;;;;;;;;;24.60;48.10;;;23.62;52.41;101121.22;12242331;19;20393;-83
2023/08/09 14:04:31;;;;;;;;;;;24.60;48.20;;;23.62;52.19;101118.53;12246830;19;20238;-83
2023/08/09 14:08:32;;;;;;;;;;;24.60;48.30;;;23.71;52.15;101135.41;12242292;19;19951;-83
2023/08/09 14:12:34;;;;;;;;;;;24.70;47.50;;;23.64;51.58;101133.38;12247606;19;19938;-83
2023/08/09 14:16:35;;;;;;;;;;;24.70;48.30;;;23.62;51.74;101143.38;12243545;19;20010;-83
2023/08/09 14:20:37;;;;;;;;;;;24.70;47.40;;;23.60;51.52;101168.53;12245712;19;19911;-84
2023/08/09 14:24:39;;;;;;;;;;;24.70;47.80;;;23.46;51.67;101201.09;12245772;19;19923;-83
2023/08/09 14:28:41;;;;;;;;;;;24.60;48.10;;;23.19;51.63;101189.59;12230544;19;19937;-81
2023/08/09 14:32:42;;;;;;;;;;;24.40;48.60;;;22.96;51.74;101190.09;12243999;19;19915;-82
2023/08/09 14:36:44;;;;;;;;;;;24.20;48.80;;;22.82;51.49;101190.63;12241475;19;20273;-82
2023/08/09 14:40:48;;;;;;;;;;;24.00;48.90;;;22.67;51.78;101200.97;12244993;19;19930;-82
2023/08/09 14:44:50;;;;;;;;;;;23.80;48.90;;;22.61;51.75;101212.22;12243632;19;19943;-82
2023/08/09 14:48:51;;;;;;;;;;;23.60;49.00;;;22.52;51.52;101206.00;12245190;19;19931;-82
2023/08/09 14:52:53;;;;;;;;;;;23.40;49.00;;;22.37;51.17;101201.34;12241401;19;19921;-82
2023/08/09 14:56:55;;;;;;;;;;;23.30;48.90;;;22.40;51.70;101211.66;12239858;19;19927;-82
2023/08/09 15:00:57;;;;;;;;;;;23.20;49.00;;;22.19;51.29;101182.66;12240697;19;20379;-81
2023/08/09 15:04:58;;;;;;;;;;;23.20;49.10;;;22.38;51.47;101209.16;12239211;19;19951;-82
2023/08/09 15:08:59;;;;;;;;;;;23.20;48.90;;;22.34;51.47;101210.44;12240873;19;20391;-81
2023/08/09 15:13:03;;;;;;;;;;;23.20;49.20;;;22.24;51.20;101189.22;12248808;19;19919;-82
2023/08/09 15:17:06;;;;;;;;;;;23.20;49.10;;;22.15;51.56;101186.59;12245491;19;19926;-82
2023/08/09 15:21:07;;;;;;;;;;;23.20;49.10;;;22.27;51.23;101207.53;12250267;19;19925;-82
2023/08/09 15:25:20;;;;;;;;;;;23.10;49.00;;;22.29;51.47;101212.72;12250531;19;20275;-82
2023/08/09 15:29:21;;;;;;;;;;;23.10;48.90;;;22.30;51.26;101211.72;12252348;19;19929;-82
2023/08/09 15:33:23;;;;;;;;;;;23.10;48.90;;;22.25;51.08;101208.66;12251674;19;20337;-82
2023/08/09 15:37:25;;;;;;;;;;;23.10;49.00;;;22.32;51.29;101223.06;12246487;19;19937;-82
2023/08/09 15:41:27;;;;;;;;;;;23.10;48.90;;;22.32;50.95;101223.06;12250150;19;19929;-82
2023/08/09 15:45:28;;;;;;;;;;;23.20;49.00;;;22.24;51.13;101215.81;12248697;19;19918;-82
2023/08/09 15:49:30;;;;;;;;;;;23.20;48.90;;;22.26;51.15;101218.34;12251674;19;19919;-82
2023/08/09 15:53:31;;;;;;;;;;;23.20;48.80;;;22.29;51.30;101224.19;12250538;19;19923;-82
2023/08/09 15:57:33;;;;;;;;;;;23.20;48.50;;;22.29;51.39;101218.88;12248571;19;20363;-83
2023/08/09 16:01:35;;;;;;;;;;;23.20;48.80;;;22.32;51.21;101204.44;12244609;19;19918;-82
2023/08/09 16:05:36;;;;;;;;;;;23.20;48.60;;;22.50;51.11;101220.44;12250597;19;19918;-82
2023/08/09 16:09:38;;;;;;;;;;;23.30;48.60;;;22.57;51.13;101225.97;12250103;19;19910;-82
2023/08/09 16:13:40;;;;;;;;;;;23.40;48.40;;;22.60;50.97;101215.91;12252778;19;20337;-82
2023/08/09 16:17:42;;;;;;;;;;;23.40;48.30;;;22.68;51.28;101223.97;12249001;19;19926;-82
2023/08/09 16:21:43;;;;;;;;;;;23.50;48.70;;;22.74;50.92;101233.16;12247912;19;19923;-82
2023/08/09 16:25:45;;;;;;;;;;;23.60;48.80;;;22.78;51.20;101239.00;12247882;19;19970;-82
2023/08/09 16:29:46;;;;;;;;;;;23.70;48.30;;;22.80;51.18;101253.84;12249086;19;19922;-82
2023/08/09 16:33:48;;;;;;;;;;;23.70;48.40;;;22.78;50.79;101244.34;12242105;19;19943;-83
2023/08/09 16:37:50;;;;;;;;;;;23.70;48.60;;;22.73;51.09;101256.25;12248411;19;20273;-83
2023/08/09 16:41:51;;;;;;;;;;;23.70;48.40;;;22.68;50.89;101250.59;12247396;19;20362;-82
2023/08/09 16:45:53;;;;;;;;;;;23.70;47.90;;;22.65;51.03;101264.16;12247818;19;19933;-82
2023/08/09 16:49:55;;;;;;;;;;;23.60;47.90;;;22.63;50.57;101258.19;12251379;19;19930;-82
2023/08/09 16:53:56;;;;;;;;;;;23.60;48.10;;;22.60;50.58;101257.63;12247775;19;19918;-82
2023/08/09 16:57:58;;;;;;;;;;;23.50;48.10;;;22.54;50.68;101262.56;12249021;19;19918;-82
2023/08/09 17:01:59;;;;;;;;;;;23.50;47.90;;;22.54;50.70;101270.53;12253800;19;19918;-83
2023/08/09 17:06:01;;;;;;;;;;;23.40;48.20;;;22.50;50.35;101271.00;12245245;19;19927;-82
2023/08/09 17:10:03;;;;;;;;;;;23.40;48.10;;;22.40;50.58;101268.41;12251808;19;19911;-82
2023/08/09 17:14:04;;;;;;;;;;;23.30;48.10;;;22.41;50.32;101278.03;12252679;19;19922;-82
2023/08/09 17:18:06;;;;;;;;;;;23.30;48.40;;;22.41;50.39;101287.84;12253232;19;19953;-82
2023/08/09 17:22:07;;;;;;;;;;;23.30;48.20;;;22.38;50.48;101290.81;12251036;19;19975;-82
2023/08/09 17:26:11;;;;;;;;;;;23.20;48.40;;;22.34;50.30;101286.78;12241580;19;19915;-82
2023/08/09 17:30:12;;;;;;;;;;;23.20;48.40;;;22.24;50.74;101278.84;12245163;19;19918;-82
2023/08/09 17:34:14;;;;;;;;;;;23.10;48.50;;;22.31;50.22;101290.59;12242778;19;19938;-82
2023/08/09 17:38:24;;;;;;;;;;;23.10;48.60;;;22.25;50.25;101280.50;12246908;19;19930;-81
2023/08/09 17:42:26;;;;;;;;;;;23.10;48.60;;;22.16;50.32;101265.41;12249254;19;19931;-82
2023/08/09 17:46:27;;;;;;;;;;;23.10;48.60;;;22.08;50.64;101260.81;12246948;19;19930;-85
2023/08/09 17:50:29;;;;;;;;;;;23.00;48.70;;;22.09;50.42;101267.84;12245936;19;20341;-85
2023/08/09 17:54:31;;;;;;;;;;;23.00;48.70;;;22.17;50.30;101288.34;12250664;19;19982;-85
2023/08/09 17:58:32;;;;;;;;;;;23.00;49.10;;;22.19;50.31;101297.06;12246804;19;19919;-82
2023/08/09 18:02:34;;;;;;;;;;;23.00;48.80;;;22.15;50.35;101301.00;12243830;19;20469;-83
2023/08/09 18:06:37;;;;;;;;;;;23.00;48.70;;;22.02;50.26;101288.84;12251055;19;19919;-82
2023/08/09 18:10:38;;;;;;;;;;;22.90;48.70;;;22.09;50.46;101308.56;12247647;19;20250;-83